LFBP/PUF METAR and TAF weather

Enter ICAO airport designator
Station Type Date Time Source
LFBP METAR 2019/04/25 12:00 UTC NOAA

LFBP 251200Z AUTO 25015KT 210V270 9999 FEW090 18/04 Q1006 TEMPO 24020G35KT 1400 TSRA SCT005 BKN040CB


Station Type Date Time Source
LFBP Decoded METAR 2019/04/25 12:00 UTC NOAA

Pau, France (LFBP) 43-23N 000-25W 185M
Apr 25, 2019 - 08:00 AM EDT / 2019.04.25 1200 UTC
Wind: from the WSW (250 degrees) at 17 MPH (15 KT) (direction variable):0
Visibility: greater than 7 mile(s):0
Sky conditions: mostly clear
Weather: Cumulonimbus clouds observed
Temperature: 64 F (18 C)
Dew Point: 39 F (4 C)
Relative Humidity: 39%
Pressure (altimeter): 29.71 in. Hg (1006 hPa)
ob: LFBP 251200Z AUTO 25015KT 210V270 9999 FEW090 18/04 Q1006 TEMPO 24020G35KT 1400 TSRA SCT005 BKN040CB
cycle: 12

Station Type Date Time Source
LFBP TAF 2019/04/25 12:21 UTC NOAA

TAF LFBP 251100Z 2512/2612 24008KT 9999 SCT020 PROB30
TEMPO 2512/2516 23015G25KT 3000 SHRA BKN050TCU PROB30
TEMPO 2513/2516 24020G35KT 1400 TSRA SCT005 BKN040CB PROB30
TEMPO 2522/2601 24015G25KT PROB30
TEMPO 2604/2612 4000 SHRA SCT010 BKN030TCU PROB30
TEMPO 2608/2612 24015G30KT

Example: see airport list